createdAt,value
2017-09-26T00:01:05.892Z,94.15
2017-09-26T00:03:33.430Z,94.87
2017-09-26T00:06:00.957Z,95.34
2017-09-26T00:08:28.467Z,94.87
2017-09-26T00:10:55.971Z,95.22
2017-09-26T00:13:23.547Z,94.40
2017-09-26T00:15:51.048Z,94.39
2017-09-26T00:18:18.551Z,94.33
2017-09-26T00:20:46.062Z,94.74
2017-09-26T00:23:13.569Z,95.03
2017-09-26T00:25:41.152Z,95.34
2017-09-26T00:28:08.663Z,96.03
2017-09-26T00:30:36.269Z,95.97
2017-09-26T00:33:03.771Z,95.94
2017-09-26T00:35:31.283Z,95.51
2017-09-26T00:38:00.279Z,94.82
2017-09-26T00:40:27.784Z,93.86
2017-09-26T00:42:55.300Z,95.00
2017-09-26T00:45:22.821Z,95.89
2017-09-26T00:47:50.356Z,96.17
2017-09-26T00:50:17.855Z,95.41
2017-09-26T00:52:45.364Z,95.73
2017-09-26T00:55:12.880Z,95.09
2017-09-26T00:57:40.397Z,94.13
2017-09-26T01:00:07.910Z,94.10
2017-09-26T01:02:35.422Z,94.49
2017-09-26T01:05:03.315Z,94.34
2017-09-26T01:07:30.831Z,94.35
2017-09-26T01:09:58.374Z,92.76
2017-09-26T01:12:25.911Z,91.85
2017-09-26T01:14:53.419Z,91.20
2017-09-26T01:17:20.937Z,91.54
2017-09-26T01:19:48.434Z,91.62
2017-09-26T01:22:16.029Z,92.71
2017-09-26T01:24:43.531Z,92.74
2017-09-26T01:27:11.030Z,92.15
2017-09-26T01:29:38.564Z,92.31
2017-09-26T01:32:06.090Z,91.59
2017-09-26T01:34:33.607Z,90.03
2017-09-26T01:37:01.113Z,90.44
2017-09-26T01:39:28.622Z,90.44
2017-09-26T01:41:56.127Z,90.91
2017-09-26T01:44:23.636Z,92.38
2017-09-26T01:46:51.133Z,91.20
2017-09-26T01:49:18.652Z,91.56
2017-09-26T01:51:46.156Z,90.52
2017-09-26T01:54:13.662Z,92.42
2017-09-26T01:56:42.988Z,92.78
2017-09-26T01:59:12.019Z,91.44
2017-09-26T02:01:39.525Z,91.99
2017-09-26T02:04:07.087Z,92.43
2017-09-26T02:06:34.632Z,92.67
2017-09-26T02:09:02.150Z,93.63
2017-09-26T02:11:29.662Z,93.47
2017-09-26T02:13:57.204Z,91.87
2017-09-26T02:16:24.733Z,93.53
2017-09-26T02:18:52.272Z,93.73
2017-09-26T02:21:19.821Z,93.98
2017-09-26T02:23:47.333Z,93.10
2017-09-26T02:26:14.859Z,95.05
2017-09-26T02:28:42.396Z,95.72
2017-09-26T02:31:09.930Z,94.30
2017-09-26T02:33:37.475Z,94.47
2017-09-26T02:36:05.036Z,94.82
2017-09-26T02:38:32.598Z,95.94
2017-09-26T02:41:00.100Z,95.87
2017-09-26T02:43:27.620Z,94.44
2017-09-26T02:45:55.127Z,95.07
2017-09-26T02:48:22.646Z,95.84
2017-09-26T02:50:50.154Z,94.93
2017-09-26T02:53:17.664Z,95.77
2017-09-26T02:55:45.197Z,96.19
2017-09-26T02:58:12.709Z,96.07
2017-09-26T03:00:40.231Z,95.05
2017-09-26T03:03:07.766Z,94.72
2017-09-26T03:05:35.287Z,93.98
2017-09-26T03:08:02.819Z,94.08
2017-09-26T03:10:30.356Z,95.42
2017-09-26T03:12:57.872Z,96.18
2017-09-26T03:15:25.422Z,95.54
2017-09-26T03:17:52.927Z,95.23
2017-09-26T03:20:20.432Z,94.92
2017-09-26T03:22:47.946Z,94.75
2017-09-26T03:25:15.468Z,93.84
2017-09-26T03:27:42.989Z,94.07
2017-09-26T03:30:10.512Z,93.47
2017-09-26T03:32:38.532Z,93.99
2017-09-26T03:35:06.052Z,94.60
2017-09-26T03:37:33.574Z,96.42
2017-09-26T03:40:01.079Z,96.31
2017-09-26T03:42:28.582Z,96.58
2017-09-26T03:44:56.092Z,96.38
2017-09-26T03:47:23.617Z,95.71
2017-09-26T03:49:51.128Z,96.07
2017-09-26T03:52:18.641Z,96.33
2017-09-26T03:54:46.160Z,94.44
2017-09-26T03:57:13.678Z,94.88
2017-09-26T03:59:41.183Z,96.23
2017-09-26T04:02:08.712Z,96.79
2017-09-26T04:04:36.224Z,97.09
2017-09-26T04:07:03.725Z,96.58
2017-09-26T04:09:31.252Z,95.97
2017-09-26T04:11:58.762Z,95.69
2017-09-26T04:14:26.266Z,95.25
2017-09-26T04:16:53.786Z,93.89
2017-09-26T04:19:21.310Z,94.85
2017-09-26T04:21:48.831Z,95.44
2017-09-26T04:24:16.341Z,96.34
2017-09-26T04:26:43.860Z,96.72
2017-09-26T04:29:11.377Z,96.48
2017-09-26T04:31:38.886Z,96.76
2017-09-26T04:34:06.404Z,96.33
2017-09-26T04:36:33.915Z,95.54
2017-09-26T04:39:01.428Z,95.67
2017-09-26T04:41:28.947Z,95.33
2017-09-26T04:43:56.479Z,95.52
2017-09-26T04:46:23.982Z,95.20
2017-09-26T04:48:51.488Z,95.85
2017-09-26T04:51:19.011Z,96.22
2017-09-26T04:53:46.530Z,95.65
2017-09-26T04:56:14.040Z,95.27
2017-09-26T04:58:41.557Z,96.25
2017-09-26T05:01:09.060Z,95.84
2017-09-26T05:03:36.582Z,95.05
2017-09-26T05:06:04.101Z,94.92
2017-09-26T05:08:31.611Z,95.01
2017-09-26T05:10:59.151Z,95.53
2017-09-26T05:13:26.674Z,94.40
2017-09-26T05:15:54.202Z,93.82
2017-09-26T05:18:21.715Z,94.80
2017-09-26T05:20:49.242Z,94.30
2017-09-26T05:23:16.778Z,95.52
2017-09-26T05:25:44.289Z,96.93
2017-09-26T05:28:11.797Z,97.41
2017-09-26T05:30:39.306Z,97.84
2017-09-26T05:33:06.870Z,97.16
2017-09-26T05:35:34.376Z,96.08
2017-09-26T05:38:01.905Z,96.32
2017-09-26T05:40:29.423Z,97.23
2017-09-26T05:42:56.969Z,97.27
2017-09-26T05:45:24.544Z,97.40
2017-09-26T05:47:52.052Z,97.76
2017-09-26T05:50:19.559Z,98.05
2017-09-26T05:52:47.079Z,97.92
2017-09-26T05:55:14.619Z,97.78
2017-09-26T05:57:42.135Z,97.60
2017-09-26T06:00:09.650Z,96.32
2017-09-26T06:02:37.185Z,95.67
2017-09-26T06:05:04.699Z,96.29
2017-09-26T06:07:32.209Z,96.29
2017-09-26T06:09:59.734Z,95.71
2017-09-26T06:12:27.239Z,95.87
2017-09-26T06:14:54.756Z,94.68
2017-09-26T06:17:22.286Z,92.61
2017-09-26T06:19:49.801Z,92.11
2017-09-26T06:22:17.318Z,93.66
2017-09-26T06:24:44.843Z,95.21
2017-09-26T06:27:12.371Z,95.12
2017-09-26T06:29:39.899Z,95.43
2017-09-26T06:32:07.407Z,95.67
2017-09-26T06:34:34.940Z,95.52
2017-09-26T06:37:02.458Z,95.51
2017-09-26T06:39:29.963Z,95.10
2017-09-26T06:41:57.470Z,95.00
2017-09-26T06:44:24.979Z,92.90
2017-09-26T06:46:52.510Z,91.53
2017-09-26T06:49:20.056Z,91.21
2017-09-26T06:51:47.601Z,88.98
2017-09-26T06:54:15.106Z,88.18
2017-09-26T06:56:42.662Z,88.28
2017-09-26T06:59:10.210Z,87.90
2017-09-26T07:01:37.720Z,87.14
2017-09-26T07:04:05.272Z,86.11
2017-09-26T07:06:41.019Z,84.41
2017-09-26T07:09:09.491Z,84.62
2017-09-26T07:12:07.966Z,82.84
2017-09-26T07:14:35.486Z,82.05
2017-09-26T07:17:04.931Z,81.18
2017-09-26T07:19:44.225Z,79.99
2017-09-26T07:22:19.423Z,79.42
2017-09-26T07:24:46.955Z,79.36
2017-09-26T07:27:14.488Z,78.37
2017-09-26T07:29:42.032Z,79.37
2017-09-26T07:32:09.548Z,79.57
2017-09-26T07:34:37.071Z,77.95
2017-09-26T07:37:04.607Z,80.73
2017-09-26T07:39:32.124Z,79.46
2017-09-26T07:41:59.671Z,77.82
2017-09-26T07:44:27.196Z,79.71
2017-09-26T07:46:54.722Z,78.65
2017-09-26T07:49:22.243Z,76.26
2017-09-26T07:51:49.766Z,72.85
2017-09-26T07:54:17.332Z,70.96
2017-09-26T07:56:44.879Z,69.53
2017-09-26T07:59:12.404Z,68.28
2017-09-26T08:01:39.932Z,66.32
2017-09-26T08:04:08.282Z,68.57
2017-09-26T08:06:36.668Z,67.86
2017-09-26T08:09:05.251Z,67.21
2017-09-26T08:11:32.799Z,59.09
2017-09-26T08:14:00.314Z,55.81
2017-09-26T08:16:27.836Z,56.41
2017-09-26T08:18:55.355Z,50.52
2017-09-26T08:21:22.965Z,46.05
2017-09-26T08:23:50.492Z,44.71
2017-09-26T08:26:18.015Z,46.23
2017-09-26T08:28:45.538Z,48.44
2017-09-26T08:31:13.061Z,49.00
2017-09-26T08:33:40.609Z,50.82
2017-09-26T08:36:08.135Z,48.39
2017-09-26T08:38:35.655Z,42.98
2017-09-26T08:41:03.217Z,38.70
2017-09-26T08:43:30.755Z,38.07
2017-09-26T08:45:58.287Z,38.21
2017-09-26T08:48:25.838Z,39.55
2017-09-26T08:50:53.350Z,34.95
2017-09-26T08:53:20.868Z,35.46
2017-09-26T08:55:48.422Z,40.47
2017-09-26T08:58:15.958Z,37.45
2017-09-26T09:00:43.483Z,40.52
2017-09-26T09:03:10.995Z,43.67
2017-09-26T09:05:38.514Z,44.52
2017-09-26T09:08:06.152Z,38.36
2017-09-26T09:10:49.089Z,38.32
2017-09-26T09:13:16.633Z,32.65
2017-09-26T09:15:44.147Z,37.08
2017-09-26T09:18:11.684Z,34.38
2017-09-26T09:20:39.208Z,35.78
2017-09-26T09:23:06.816Z,38.54
2017-09-26T09:25:34.284Z,36.11
2017-09-26T09:28:01.791Z,33.41
2017-09-26T09:32:27.399Z,35.14
2017-09-26T09:34:54.936Z,30.76
2017-09-26T09:37:22.440Z,38.66
2017-09-26T09:39:49.955Z,35.02
2017-09-26T09:42:17.474Z,34.10
2017-09-26T09:44:44.993Z,38.21
2017-09-26T09:47:12.520Z,38.63
2017-09-26T09:49:40.052Z,32.77
2017-09-26T09:52:07.577Z,33.94
2017-09-26T09:54:35.140Z,32.38
2017-09-26T09:57:02.742Z,29.81
2017-09-26T09:59:30.287Z,32.06
2017-09-26T10:01:57.793Z,30.04
2017-09-26T10:04:25.343Z,33.98
2017-09-26T10:06:53.031Z,32.68
2017-09-26T10:09:20.535Z,37.39
2017-09-26T10:11:48.053Z,29.92
2017-09-26T10:14:15.631Z,31.35
2017-09-26T10:16:43.294Z,30.77
2017-09-26T10:19:10.851Z,30.35
2017-09-26T10:21:38.352Z,36.45
2017-09-26T10:24:05.876Z,32.00
2017-09-26T10:26:33.390Z,33.46
2017-09-26T10:29:00.905Z,36.25
2017-09-26T10:31:28.438Z,34.01
2017-09-26T10:33:56.160Z,32.96
2017-09-26T10:36:23.691Z,33.23
2017-09-26T10:38:51.214Z,29.23
2017-09-26T10:41:18.738Z,31.48
2017-09-26T10:43:46.261Z,30.40
2017-09-26T10:46:13.814Z,31.34
2017-09-26T10:48:41.351Z,31.89
2017-09-26T10:51:08.885Z,29.85
2017-09-26T10:53:36.408Z,30.88
2017-09-26T10:56:03.920Z,30.88
2017-09-26T10:58:31.433Z,32.33
2017-09-26T11:00:58.968Z,30.79
2017-09-26T11:03:26.602Z,32.09
2017-09-26T11:05:54.115Z,30.39
2017-09-26T11:08:21.650Z,31.29
2017-09-26T11:10:49.173Z,32.39
2017-09-26T11:13:16.700Z,33.08
2017-09-26T11:15:44.227Z,32.05
2017-09-26T11:18:11.747Z,29.58
2017-09-26T11:20:39.308Z,29.11
2017-09-26T11:23:06.842Z,30.61
2017-09-26T11:25:34.377Z,28.65
2017-09-26T11:28:01.908Z,29.97
2017-09-26T11:30:29.427Z,29.77
2017-09-26T11:32:56.943Z,31.78
2017-09-26T11:35:24.465Z,33.01
2017-09-26T11:37:51.979Z,28.65
2017-09-26T11:40:19.510Z,29.23
2017-09-26T11:42:47.058Z,30.01
2017-09-26T11:45:14.575Z,29.30
2017-09-26T11:47:42.106Z,29.26
2017-09-26T11:50:09.635Z,33.88
2017-09-26T11:52:37.174Z,30.96
2017-09-26T11:55:04.743Z,28.79
2017-09-26T11:57:32.285Z,28.59
2017-09-26T11:59:59.856Z,29.29
2017-09-26T12:02:27.395Z,31.28
2017-09-26T12:04:54.962Z,32.38
2017-09-26T12:07:22.495Z,30.65
2017-09-26T12:09:50.015Z,32.64
2017-09-26T12:12:17.549Z,32.07
2017-09-26T12:14:45.064Z,30.49
2017-09-26T12:17:12.592Z,28.54
2017-09-26T12:19:40.133Z,29.17
2017-09-26T12:22:07.678Z,30.06
2017-09-26T12:24:35.193Z,32.79
2017-09-26T12:27:02.789Z,32.44
2017-09-26T12:29:30.328Z,31.74
2017-09-26T12:31:57.856Z,27.80
2017-09-26T12:34:25.392Z,29.53
2017-09-26T12:36:52.924Z,28.62
2017-09-26T12:39:20.465Z,28.40
2017-09-26T12:41:47.989Z,30.47
2017-09-26T12:44:15.516Z,30.88
2017-09-26T12:46:43.049Z,29.59
2017-09-26T12:49:10.575Z,26.75
2017-09-26T12:51:38.096Z,28.34
2017-09-26T12:54:05.652Z,34.71
2017-09-26T12:56:33.234Z,37.66
2017-09-26T12:59:00.784Z,42.86
2017-09-26T13:01:28.350Z,42.37
2017-09-26T13:03:55.858Z,43.33
2017-09-26T13:06:23.374Z,38.86
2017-09-26T13:08:50.885Z,39.45
2017-09-26T13:11:18.417Z,41.47
2017-09-26T13:13:45.950Z,42.06
2017-09-26T13:16:13.538Z,45.07
2017-09-26T13:18:41.080Z,38.98
2017-09-26T13:21:08.658Z,38.87
2017-09-26T13:23:36.176Z,41.49
2017-09-26T13:26:03.717Z,41.41
2017-09-26T13:28:31.248Z,35.32
2017-09-26T13:30:58.797Z,35.10
2017-09-26T13:33:26.338Z,33.16
2017-09-26T13:35:53.881Z,37.24
2017-09-26T13:38:21.409Z,38.37
2017-09-26T13:40:48.933Z,43.04
2017-09-26T13:43:16.467Z,43.97
2017-09-26T13:45:44.447Z,44.47
2017-09-26T13:48:11.971Z,45.56
2017-09-26T13:50:39.505Z,44.71
2017-09-26T13:53:07.100Z,45.74
2017-09-26T13:55:34.614Z,48.45
2017-09-26T13:58:02.214Z,49.96
2017-09-26T14:00:29.752Z,45.03
2017-09-26T14:02:57.284Z,45.76
2017-09-26T14:05:24.812Z,46.40
2017-09-26T14:07:52.323Z,48.86
2017-09-26T14:10:19.850Z,48.93
2017-09-26T14:12:47.393Z,49.34
2017-09-26T14:15:14.919Z,51.37
2017-09-26T14:17:42.470Z,51.35
2017-09-26T14:20:09.992Z,51.37
2017-09-26T14:22:37.515Z,52.19
2017-09-26T14:25:05.071Z,52.34
2017-09-26T14:27:32.579Z,51.15
2017-09-26T14:30:00.100Z,49.79
2017-09-26T14:32:27.712Z,48.29
2017-09-26T14:34:55.227Z,47.29
2017-09-26T14:37:22.752Z,47.96
2017-09-26T14:39:50.254Z,49.06
2017-09-26T14:42:17.765Z,49.51
2017-09-26T14:44:45.275Z,56.45
2017-09-26T14:47:12.802Z,59.50
2017-09-26T14:49:41.305Z,64.72
2017-09-26T14:52:08.831Z,69.96
2017-09-26T14:54:36.385Z,71.33
2017-09-26T14:57:03.915Z,75.92
2017-09-26T14:59:31.447Z,81.28
2017-09-26T15:01:58.985Z,83.37
2017-09-26T15:04:26.515Z,83.40
2017-09-26T15:06:54.056Z,85.75
2017-09-26T15:09:21.574Z,83.13
2017-09-26T15:11:49.105Z,85.00
2017-09-26T15:14:16.619Z,88.71
2017-09-26T15:16:44.142Z,88.91
2017-09-26T15:19:11.673Z,88.88
2017-09-26T15:21:39.202Z,90.50
2017-09-26T15:24:06.718Z,91.62
2017-09-26T15:26:34.323Z,89.02
2017-09-26T15:29:01.831Z,85.16
2017-09-26T15:31:29.360Z,86.90
2017-09-26T15:33:56.947Z,88.01
2017-09-26T15:36:24.464Z,89.31
2017-09-26T15:38:51.992Z,89.23
2017-09-26T15:41:19.517Z,89.23
2017-09-26T15:43:47.061Z,90.37
2017-09-26T15:46:14.575Z,90.46
2017-09-26T15:48:42.111Z,89.75
2017-09-26T15:51:09.649Z,90.83
2017-09-26T15:53:37.166Z,88.78
2017-09-26T15:56:04.689Z,90.02
2017-09-26T15:58:32.213Z,84.30
2017-09-26T16:00:59.734Z,85.17
2017-09-26T16:03:27.267Z,80.66
2017-09-26T16:05:54.789Z,81.27
2017-09-26T16:08:22.331Z,80.61
2017-09-26T16:10:49.859Z,81.97
2017-09-26T16:13:17.374Z,81.29
2017-09-26T16:15:44.904Z,81.84
2017-09-26T16:18:12.544Z,83.30
2017-09-26T16:20:40.072Z,84.72
2017-09-26T16:23:07.616Z,87.80
2017-09-26T16:25:35.173Z,89.58
2017-09-26T16:28:02.688Z,91.94
2017-09-26T16:30:30.214Z,92.34
2017-09-26T16:32:57.849Z,87.42
2017-09-26T16:35:25.395Z,87.99
2017-09-26T16:37:52.937Z,87.74
2017-09-26T16:40:20.536Z,87.28
2017-09-26T16:42:48.065Z,87.98
2017-09-26T16:45:15.603Z,89.33
2017-09-26T16:47:43.199Z,89.89
2017-09-26T16:50:10.712Z,89.38
2017-09-26T16:52:38.235Z,86.11
2017-09-26T16:55:05.847Z,88.85
2017-09-26T16:57:33.434Z,90.43
2017-09-26T17:00:00.974Z,90.71
2017-09-26T17:02:28.510Z,91.98
2017-09-26T17:04:56.081Z,91.47
2017-09-26T17:07:23.591Z,91.63
2017-09-26T17:09:51.115Z,94.35
2017-09-26T17:12:18.666Z,95.09
2017-09-26T17:14:49.150Z,94.55
2017-09-26T17:17:37.322Z,94.94
2017-09-26T17:20:06.618Z,94.91
2017-09-26T17:22:34.158Z,95.47
2017-09-26T17:25:01.696Z,95.47
2017-09-26T17:27:29.240Z,95.37
2017-09-26T17:29:56.813Z,94.80
2017-09-26T17:32:24.335Z,94.27
2017-09-26T17:34:52.475Z,93.24
2017-09-26T17:37:20.023Z,93.37
2017-09-26T17:39:47.547Z,94.49
2017-09-26T17:42:15.198Z,93.66
2017-09-26T17:44:42.742Z,93.20
2017-09-26T17:47:10.264Z,93.25
2017-09-26T17:49:37.806Z,92.81
2017-09-26T17:52:05.352Z,92.84
2017-09-26T17:54:33.130Z,95.07
2017-09-26T17:57:00.715Z,96.38
2017-09-26T17:59:28.251Z,96.32
2017-09-26T18:01:55.767Z,95.16
2017-09-26T18:04:23.299Z,94.76
2017-09-26T18:06:50.939Z,95.13
2017-09-26T18:09:18.548Z,94.34
2017-09-26T18:11:46.095Z,95.92
2017-09-26T18:14:20.199Z,92.47
2017-09-26T18:16:48.292Z,91.15
2017-09-26T18:19:16.777Z,90.90
2017-09-26T18:21:44.329Z,92.84
2017-09-26T18:24:11.840Z,96.19
2017-09-26T18:26:46.289Z,95.40
2017-09-26T18:29:20.820Z,95.81
2017-09-26T18:31:50.253Z,93.94
2017-09-26T18:34:17.767Z,95.15
2017-09-26T18:36:45.296Z,95.07
2017-09-26T18:39:12.848Z,94.90
2017-09-26T18:41:40.467Z,96.13
2017-09-26T18:44:08.008Z,96.00
2017-09-26T18:46:35.541Z,96.15
2017-09-26T18:49:03.087Z,95.09
2017-09-26T18:51:30.624Z,95.75
2017-09-26T18:53:58.131Z,96.78
2017-09-26T18:56:25.654Z,97.29
2017-09-26T18:58:53.187Z,96.76
2017-09-26T19:01:20.707Z,96.56
2017-09-26T19:03:48.219Z,97.21
2017-09-26T19:06:15.748Z,97.03
2017-09-26T19:08:43.290Z,93.28
2017-09-26T19:11:10.828Z,95.10
2017-09-26T19:13:38.378Z,95.66
2017-09-26T19:16:05.948Z,96.91
2017-09-26T19:18:33.464Z,96.82
2017-09-26T19:21:01.086Z,97.77
2017-09-26T19:23:28.707Z,97.78
2017-09-26T19:25:56.237Z,97.61
2017-09-26T19:28:23.763Z,97.46
2017-09-26T19:30:51.341Z,97.21
2017-09-26T19:33:18.899Z,96.48
2017-09-26T19:35:46.428Z,97.77
2017-09-26T19:38:13.958Z,98.18
2017-09-26T19:40:41.571Z,98.21
2017-09-26T19:43:09.208Z,97.67
2017-09-26T19:45:36.841Z,97.23
2017-09-26T19:48:04.391Z,96.52
2017-09-26T19:50:31.956Z,96.82
2017-09-26T19:52:59.490Z,96.54
2017-09-26T19:55:27.044Z,96.88
2017-09-26T19:57:54.597Z,96.26
2017-09-26T20:00:22.131Z,95.18
2017-09-26T20:02:49.709Z,93.86
2017-09-26T20:05:17.255Z,94.31
2017-09-26T20:07:44.783Z,94.91
2017-09-26T20:10:12.294Z,94.85
2017-09-26T20:12:39.845Z,96.89
2017-09-26T20:15:07.370Z,97.66
2017-09-26T20:17:34.900Z,98.01
2017-09-26T20:20:02.410Z,98.11
2017-09-26T20:22:29.938Z,99.02
2017-09-26T20:24:57.466Z,99.18
2017-09-26T20:27:25.004Z,98.61
2017-09-26T20:29:52.541Z,97.95
2017-09-26T20:32:20.120Z,98.09
2017-09-26T20:34:47.658Z,98.67
2017-09-26T20:37:15.268Z,98.31
2017-09-26T20:39:42.812Z,97.26
2017-09-26T20:42:10.338Z,97.51
2017-09-26T20:44:37.861Z,98.45
2017-09-26T20:47:05.390Z,98.65
2017-09-26T20:49:32.928Z,98.47
2017-09-26T20:52:00.469Z,98.35
2017-09-26T20:54:28.003Z,98.11
2017-09-26T20:56:55.532Z,97.90
2017-09-26T20:59:23.060Z,98.46
2017-09-26T21:01:50.573Z,98.59
2017-09-26T21:04:18.120Z,99.04
2017-09-26T21:06:45.664Z,97.82
2017-09-26T21:09:13.279Z,96.65
2017-09-26T21:11:40.790Z,96.78
2017-09-26T21:14:08.305Z,97.41
2017-09-26T21:16:36.760Z,97.89
2017-09-26T21:19:04.274Z,97.76
2017-09-26T21:21:31.794Z,96.31
2017-09-26T21:23:59.306Z,96.43
2017-09-26T21:26:26.908Z,96.14
2017-09-26T21:28:54.460Z,96.64
2017-09-26T21:31:22.006Z,97.63
2017-09-26T21:33:49.543Z,98.08
2017-09-26T21:36:17.079Z,98.99
2017-09-26T21:38:44.704Z,99.23
2017-09-26T21:41:12.240Z,98.67
2017-09-26T21:43:39.821Z,98.76
2017-09-26T21:46:07.347Z,98.15
2017-09-26T21:48:34.896Z,98.04
2017-09-26T21:51:02.430Z,98.01
2017-09-26T21:53:29.974Z,98.25
2017-09-26T21:55:57.591Z,96.82
2017-09-26T21:58:25.148Z,95.33
2017-09-26T22:00:52.834Z,96.26
2017-09-26T22:03:20.358Z,97.20
2017-09-26T22:05:47.871Z,98.12
2017-09-26T22:08:15.388Z,99.22
2017-09-26T22:10:42.910Z,99.48
2017-09-26T22:13:10.446Z,99.49
2017-09-26T22:15:37.966Z,98.94
2017-09-26T22:18:05.541Z,99.10
2017-09-26T22:20:33.075Z,99.35
2017-09-26T22:23:00.583Z,99.71
2017-09-26T22:25:28.090Z,99.80
2017-09-26T22:27:55.617Z,99.88
2017-09-26T22:30:23.174Z,100.00
2017-09-26T22:32:50.689Z,99.52
2017-09-26T22:35:18.348Z,99.76
2017-09-26T22:37:45.886Z,99.73
2017-09-26T22:40:13.391Z,99.16
2017-09-26T22:42:40.904Z,99.12
2017-09-26T22:45:08.428Z,98.57
2017-09-26T22:47:35.959Z,98.16
2017-09-26T22:50:03.496Z,98.32
2017-09-26T22:52:31.012Z,97.52
2017-09-26T22:54:58.535Z,97.73
2017-09-26T22:57:26.058Z,97.67
2017-09-26T22:59:53.580Z,99.04
2017-09-26T23:02:21.103Z,99.75
2017-09-26T23:04:48.611Z,99.62
2017-09-26T23:07:16.164Z,99.51
2017-09-26T23:09:43.699Z,99.58
2017-09-26T23:12:11.220Z,99.54
2017-09-26T23:14:38.742Z,99.50
2017-09-26T23:17:06.248Z,99.56
2017-09-26T23:19:33.753Z,99.58
2017-09-26T23:22:01.295Z,99.53
2017-09-26T23:24:28.806Z,99.48
2017-09-26T23:26:56.336Z,100.00
2017-09-26T23:29:23.854Z,100.00
2017-09-26T23:31:51.376Z,99.01
2017-09-26T23:34:18.961Z,98.70
2017-09-26T23:36:46.475Z,98.06
2017-09-26T23:39:13.993Z,97.69
2017-09-26T23:41:41.505Z,98.69
2017-09-26T23:44:09.023Z,99.31
2017-09-26T23:46:36.552Z,99.27
2017-09-26T23:49:04.070Z,99.35
2017-09-26T23:51:31.586Z,99.84
2017-09-26T23:53:59.126Z,99.91
2017-09-26T23:56:26.643Z,100.00
2017-09-26T23:58:54.171Z,99.94
